sensor_id;sensor_type;location;lat;lon;timestamp;P1;durP1;ratioP1;P2;durP2;ratioP2
9799;SDS011;4939;52.00085300;4.17406100;2024-02-26T00:01:41;5.47;;;2.55;;
9799;SDS011;4939;52.00085300;4.17406100;2024-02-26T00:04:09;9.57;;;2.90;;
9799;SDS011;4939;52.00085300;4.17406100;2024-02-26T00:06:35;5.93;;;2.70;;
9799;SDS011;4939;52.00085300;4.17406100;2024-02-26T00:09:02;5.53;;;2.85;;
9799;SDS011;4939;52.00085300;4.17406100;2024-02-26T00:11:31;5.10;;;2.63;;
9799;SDS011;4939;52.00085300;4.17406100;2024-02-26T00:13:57;5.68;;;3.10;;
9799;SDS011;4939;52.00085300;4.17406100;2024-02-26T00:16:23;6.35;;;2.92;;
9799;SDS011;4939;52.00085300;4.17406100;2024-02-26T00:18:49;4.20;;;2.47;;
9799;SDS011;4939;52.00085300;4.17406100;2024-02-26T00:21:15;6.95;;;3.03;;
9799;SDS011;4939;52.00085300;4.17406100;2024-02-26T00:23:41;5.65;;;2.85;;
9799;SDS011;4939;52.00085300;4.17406100;2024-02-26T00:26:07;7.25;;;2.80;;
9799;SDS011;4939;52.00085300;4.17406100;2024-02-26T00:28:34;7.38;;;3.10;;
9799;SDS011;4939;52.00085300;4.17406100;2024-02-26T00:31:00;6.07;;;2.95;;
9799;SDS011;4939;52.00085300;4.17406100;2024-02-26T00:33:26;5.72;;;3.05;;
9799;SDS011;4939;52.00085300;4.17406100;2024-02-26T00:35:52;6.07;;;2.90;;
9799;SDS011;4939;52.00085300;4.17406100;2024-02-26T00:38:18;6.32;;;2.92;;
9799;SDS011;4939;52.00085300;4.17406100;2024-02-26T00:40:44;7.13;;;3.00;;
9799;SDS011;4939;52.00085300;4.17406100;2024-02-26T00:43:10;5.38;;;2.80;;
9799;SDS011;4939;52.00085300;4.17406100;2024-02-26T00:45:36;6.00;;;3.13;;
9799;SDS011;4939;52.00085300;4.17406100;2024-02-26T00:48:02;5.82;;;3.00;;
9799;SDS011;4939;52.00085300;4.17406100;2024-02-26T00:50:32;5.57;;;2.78;;
9799;SDS011;4939;52.00085300;4.17406100;2024-02-26T00:52:58;6.47;;;3.35;;
9799;SDS011;4939;52.00085300;4.17406100;2024-02-26T00:55:24;7.57;;;2.92;;
9799;SDS011;4939;52.00085300;4.17406100;2024-02-26T00:57:50;7.10;;;3.20;;
9799;SDS011;4939;52.00085300;4.17406100;2024-02-26T01:00:17;6.47;;;2.92;;
9799;SDS011;4939;52.00085300;4.17406100;2024-02-26T01:02:43;6.53;;;3.67;;
9799;SDS011;4939;52.00085300;4.17406100;2024-02-26T01:05:11;7.10;;;3.50;;
9799;SDS011;4939;52.00085300;4.17406100;2024-02-26T01:07:38;7.10;;;3.00;;
9799;SDS011;4939;52.00085300;4.17406100;2024-02-26T01:10:05;8.27;;;3.10;;
9799;SDS011;4939;52.00085300;4.17406100;2024-02-26T01:12:31;6.18;;;3.15;;
9799;SDS011;4939;52.00085300;4.17406100;2024-02-26T01:14:58;5.43;;;3.10;;
9799;SDS011;4939;52.00085300;4.17406100;2024-02-26T01:17:24;9.70;;;3.40;;
9799;SDS011;4939;52.00085300;4.17406100;2024-02-26T01:19:50;6.40;;;2.80;;
9799;SDS011;4939;52.00085300;4.17406100;2024-02-26T01:22:16;5.07;;;2.60;;
9799;SDS011;4939;52.00085300;4.17406100;2024-02-26T01:24:42;6.05;;;2.83;;
9799;SDS011;4939;52.00085300;4.17406100;2024-02-26T01:27:08;8.23;;;2.95;;
9799;SDS011;4939;52.00085300;4.17406100;2024-02-26T01:29:35;6.22;;;2.70;;
9799;SDS011;4939;52.00085300;4.17406100;2024-02-26T01:32:01;6.07;;;3.00;;
9799;SDS011;4939;52.00085300;4.17406100;2024-02-26T01:34:30;5.43;;;2.92;;
9799;SDS011;4939;52.00085300;4.17406100;2024-02-26T01:36:56;5.70;;;3.10;;
9799;SDS011;4939;52.00085300;4.17406100;2024-02-26T01:39:22;7.10;;;2.70;;
9799;SDS011;4939;52.00085300;4.17406100;2024-02-26T01:41:48;5.90;;;2.92;;
9799;SDS011;4939;52.00085300;4.17406100;2024-02-26T01:44:14;5.90;;;2.72;;
9799;SDS011;4939;52.00085300;4.17406100;2024-02-26T01:46:40;7.80;;;2.88;;
9799;SDS011;4939;52.00085300;4.17406100;2024-02-26T01:49:06;6.57;;;2.90;;
9799;SDS011;4939;52.00085300;4.17406100;2024-02-26T01:51:37;7.90;;;3.17;;
9799;SDS011;4939;52.00085300;4.17406100;2024-02-26T01:54:04;5.35;;;2.72;;
9799;SDS011;4939;52.00085300;4.17406100;2024-02-26T01:56:32;6.32;;;3.10;;
9799;SDS011;4939;52.00085300;4.17406100;2024-02-26T01:59:00;6.97;;;3.00;;
9799;SDS011;4939;52.00085300;4.17406100;2024-02-26T02:01:27;5.20;;;2.83;;
9799;SDS011;4939;52.00085300;4.17406100;2024-02-26T02:03:56;9.82;;;3.28;;
9799;SDS011;4939;52.00085300;4.17406100;2024-02-26T02:06:23;6.28;;;3.38;;
9799;SDS011;4939;52.00085300;4.17406100;2024-02-26T02:08:50;8.70;;;3.30;;
9799;SDS011;4939;52.00085300;4.17406100;2024-02-26T02:11:16;7.90;;;3.55;;
9799;SDS011;4939;52.00085300;4.17406100;2024-02-26T02:13:43;7.75;;;3.72;;
9799;SDS011;4939;52.00085300;4.17406100;2024-02-26T02:16:09;7.35;;;3.78;;
9799;SDS011;4939;52.00085300;4.17406100;2024-02-26T02:18:35;7.07;;;3.55;;
9799;SDS011;4939;52.00085300;4.17406100;2024-02-26T02:21:01;7.80;;;3.83;;
9799;SDS011;4939;52.00085300;4.17406100;2024-02-26T02:23:27;6.40;;;3.35;;
9799;SDS011;4939;52.00085300;4.17406100;2024-02-26T02:25:53;7.63;;;3.65;;
9799;SDS011;4939;52.00085300;4.17406100;2024-02-26T02:28:21;7.22;;;3.25;;
9799;SDS011;4939;52.00085300;4.17406100;2024-02-26T02:30:47;8.27;;;4.00;;
9799;SDS011;4939;52.00085300;4.17406100;2024-02-26T02:33:14;10.55;;;4.13;;
9799;SDS011;4939;52.00085300;4.17406100;2024-02-26T02:35:40;7.57;;;3.92;;
9799;SDS011;4939;52.00085300;4.17406100;2024-02-26T02:38:06;7.72;;;3.70;;
9799;SDS011;4939;52.00085300;4.17406100;2024-02-26T02:40:32;7.55;;;3.58;;
9799;SDS011;4939;52.00085300;4.17406100;2024-02-26T02:42:58;8.90;;;3.90;;
9799;SDS011;4939;52.00085300;4.17406100;2024-02-26T02:45:26;11.82;;;3.88;;
9799;SDS011;4939;52.00085300;4.17406100;2024-02-26T02:47:52;7.43;;;3.72;;
9799;SDS011;4939;52.00085300;4.17406100;2024-02-26T02:50:19;6.70;;;3.33;;
9799;SDS011;4939;52.00085300;4.17406100;2024-02-26T02:52:45;7.65;;;3.40;;
9799;SDS011;4939;52.00085300;4.17406100;2024-02-26T02:55:11;8.15;;;3.88;;
9799;SDS011;4939;52.00085300;4.17406100;2024-02-26T02:57:37;7.65;;;3.47;;
9799;SDS011;4939;52.00085300;4.17406100;2024-02-26T03:00:09;8.45;;;3.53;;
9799;SDS011;4939;52.00085300;4.17406100;2024-02-26T03:02:35;7.03;;;3.33;;
9799;SDS011;4939;52.00085300;4.17406100;2024-02-26T03:05:01;8.85;;;3.80;;
9799;SDS011;4939;52.00085300;4.17406100;2024-02-26T03:07:28;8.40;;;3.55;;
9799;SDS011;4939;52.00085300;4.17406100;2024-02-26T03:09:54;7.95;;;3.47;;
9799;SDS011;4939;52.00085300;4.17406100;2024-02-26T03:12:20;8.95;;;3.47;;
9799;SDS011;4939;52.00085300;4.17406100;2024-02-26T03:14:46;6.35;;;3.13;;
9799;SDS011;4939;52.00085300;4.17406100;2024-02-26T03:17:12;6.93;;;3.03;;
9799;SDS011;4939;52.00085300;4.17406100;2024-02-26T03:19:38;5.78;;;2.80;;
9799;SDS011;4939;52.00085300;4.17406100;2024-02-26T03:22:04;7.10;;;2.78;;
9799;SDS011;4939;52.00085300;4.17406100;2024-02-26T03:24:30;6.95;;;3.10;;
9799;SDS011;4939;52.00085300;4.17406100;2024-02-26T03:26:56;5.53;;;3.10;;
9799;SDS011;4939;52.00085300;4.17406100;2024-02-26T03:29:23;7.68;;;2.88;;
9799;SDS011;4939;52.00085300;4.17406100;2024-02-26T03:31:49;6.00;;;2.95;;
9799;SDS011;4939;52.00085300;4.17406100;2024-02-26T03:34:15;9.18;;;3.40;;
9799;SDS011;4939;52.00085300;4.17406100;2024-02-26T03:36:42;5.80;;;2.50;;
9799;SDS011;4939;52.00085300;4.17406100;2024-02-26T03:39:08;6.47;;;2.88;;
9799;SDS011;4939;52.00085300;4.17406100;2024-02-26T03:41:34;6.93;;;3.28;;
9799;SDS011;4939;52.00085300;4.17406100;2024-02-26T03:44:01;5.35;;;2.90;;
9799;SDS011;4939;52.00085300;4.17406100;2024-02-26T03:46:27;5.68;;;2.60;;
9799;SDS011;4939;52.00085300;4.17406100;2024-02-26T03:48:53;6.22;;;2.80;;
9799;SDS011;4939;52.00085300;4.17406100;2024-02-26T03:51:19;6.07;;;2.70;;
9799;SDS011;4939;52.00085300;4.17406100;2024-02-26T03:53:45;6.97;;;3.40;;
9799;SDS011;4939;52.00085300;4.17406100;2024-02-26T03:56:11;7.97;;;2.90;;
9799;SDS011;4939;52.00085300;4.17406100;2024-02-26T03:58:38;6.70;;;3.03;;
9799;SDS011;4939;52.00085300;4.17406100;2024-02-26T04:01:06;7.32;;;2.92;;
9799;SDS011;4939;52.00085300;4.17406100;2024-02-26T04:03:33;8.43;;;3.40;;
9799;SDS011;4939;52.00085300;4.17406100;2024-02-26T04:05:59;8.25;;;3.45;;
9799;SDS011;4939;52.00085300;4.17406100;2024-02-26T04:08:25;8.73;;;3.47;;
9799;SDS011;4939;52.00085300;4.17406100;2024-02-26T04:10:51;7.88;;;3.22;;
9799;SDS011;4939;52.00085300;4.17406100;2024-02-26T04:13:17;6.68;;;2.97;;
9799;SDS011;4939;52.00085300;4.17406100;2024-02-26T04:15:43;7.85;;;3.45;;
9799;SDS011;4939;52.00085300;4.17406100;2024-02-26T04:18:09;7.88;;;3.70;;
9799;SDS011;4939;52.00085300;4.17406100;2024-02-26T04:20:35;7.95;;;3.75;;
9799;SDS011;4939;52.00085300;4.17406100;2024-02-26T04:23:02;7.65;;;3.63;;
9799;SDS011;4939;52.00085300;4.17406100;2024-02-26T04:25:28;9.05;;;3.85;;
9799;SDS011;4939;52.00085300;4.17406100;2024-02-26T04:27:54;7.97;;;3.45;;
9799;SDS011;4939;52.00085300;4.17406100;2024-02-26T04:30:20;8.43;;;3.20;;
9799;SDS011;4939;52.00085300;4.17406100;2024-02-26T04:32:46;7.03;;;3.08;;
9799;SDS011;4939;52.00085300;4.17406100;2024-02-26T04:35:12;7.63;;;3.30;;
9799;SDS011;4939;52.00085300;4.17406100;2024-02-26T04:37:38;8.93;;;3.90;;
9799;SDS011;4939;52.00085300;4.17406100;2024-02-26T04:40:05;9.55;;;3.97;;
9799;SDS011;4939;52.00085300;4.17406100;2024-02-26T04:42:31;9.88;;;3.97;;
9799;SDS011;4939;52.00085300;4.17406100;2024-02-26T04:44:57;9.05;;;3.97;;
9799;SDS011;4939;52.00085300;4.17406100;2024-02-26T04:47:23;9.07;;;4.03;;
9799;SDS011;4939;52.00085300;4.17406100;2024-02-26T04:49:52;12.38;;;4.10;;
9799;SDS011;4939;52.00085300;4.17406100;2024-02-26T04:52:18;9.77;;;3.95;;
9799;SDS011;4939;52.00085300;4.17406100;2024-02-26T04:54:44;14.45;;;3.58;;
9799;SDS011;4939;52.00085300;4.17406100;2024-02-26T04:57:10;9.43;;;3.90;;
9799;SDS011;4939;52.00085300;4.17406100;2024-02-26T04:59:36;9.07;;;3.78;;
9799;SDS011;4939;52.00085300;4.17406100;2024-02-26T05:02:03;11.50;;;4.60;;
9799;SDS011;4939;52.00085300;4.17406100;2024-02-26T05:04:28;8.88;;;4.03;;
9799;SDS011;4939;52.00085300;4.17406100;2024-02-26T05:06:54;11.25;;;4.47;;
9799;SDS011;4939;52.00085300;4.17406100;2024-02-26T05:09:21;9.73;;;4.30;;
9799;SDS011;4939;52.00085300;4.17406100;2024-02-26T05:11:49;11.13;;;4.43;;
9799;SDS011;4939;52.00085300;4.17406100;2024-02-26T05:14:15;12.65;;;4.75;;
9799;SDS011;4939;52.00085300;4.17406100;2024-02-26T05:16:41;12.23;;;4.75;;
9799;SDS011;4939;52.00085300;4.17406100;2024-02-26T05:19:07;11.48;;;4.13;;
9799;SDS011;4939;52.00085300;4.17406100;2024-02-26T05:21:33;11.27;;;4.13;;
9799;SDS011;4939;52.00085300;4.17406100;2024-02-26T05:23:59;11.45;;;4.20;;
9799;SDS011;4939;52.00085300;4.17406100;2024-02-26T05:26:25;10.98;;;4.50;;
9799;SDS011;4939;52.00085300;4.17406100;2024-02-26T05:28:51;13.07;;;4.57;;
9799;SDS011;4939;52.00085300;4.17406100;2024-02-26T05:31:17;10.75;;;4.18;;
9799;SDS011;4939;52.00085300;4.17406100;2024-02-26T05:33:43;11.70;;;4.40;;
9799;SDS011;4939;52.00085300;4.17406100;2024-02-26T05:36:10;10.70;;;4.40;;
9799;SDS011;4939;52.00085300;4.17406100;2024-02-26T05:38:36;14.80;;;4.85;;
9799;SDS011;4939;52.00085300;4.17406100;2024-02-26T05:41:02;11.82;;;4.75;;
9799;SDS011;4939;52.00085300;4.17406100;2024-02-26T05:43:29;9.38;;;4.53;;
9799;SDS011;4939;52.00085300;4.17406100;2024-02-26T05:45:55;13.88;;;4.88;;
9799;SDS011;4939;52.00085300;4.17406100;2024-02-26T05:48:21;12.73;;;4.90;;
9799;SDS011;4939;52.00085300;4.17406100;2024-02-26T05:50:47;11.73;;;4.82;;
9799;SDS011;4939;52.00085300;4.17406100;2024-02-26T05:53:14;13.10;;;5.03;;
9799;SDS011;4939;52.00085300;4.17406100;2024-02-26T05:55:39;12.30;;;5.03;;
9799;SDS011;4939;52.00085300;4.17406100;2024-02-26T05:58:05;11.85;;;4.97;;
9799;SDS011;4939;52.00085300;4.17406100;2024-02-26T06:00:32;13.48;;;5.18;;
9799;SDS011;4939;52.00085300;4.17406100;2024-02-26T06:02:58;14.95;;;5.32;;
9799;SDS011;4939;52.00085300;4.17406100;2024-02-26T06:05:24;15.90;;;5.05;;
9799;SDS011;4939;52.00085300;4.17406100;2024-02-26T06:07:50;14.90;;;5.40;;
9799;SDS011;4939;52.00085300;4.17406100;2024-02-26T06:10:16;14.52;;;5.35;;
9799;SDS011;4939;52.00085300;4.17406100;2024-02-26T06:12:42;14.55;;;6.35;;
9799;SDS011;4939;52.00085300;4.17406100;2024-02-26T06:15:08;18.05;;;6.28;;
9799;SDS011;4939;52.00085300;4.17406100;2024-02-26T06:17:34;13.73;;;5.22;;
9799;SDS011;4939;52.00085300;4.17406100;2024-02-26T06:20:00;16.52;;;6.03;;
9799;SDS011;4939;52.00085300;4.17406100;2024-02-26T06:22:26;15.95;;;5.97;;
9799;SDS011;4939;52.00085300;4.17406100;2024-02-26T06:24:52;15.43;;;6.13;;
9799;SDS011;4939;52.00085300;4.17406100;2024-02-26T06:27:19;17.23;;;6.32;;
9799;SDS011;4939;52.00085300;4.17406100;2024-02-26T06:29:46;18.38;;;6.18;;
9799;SDS011;4939;52.00085300;4.17406100;2024-02-26T06:32:13;17.65;;;6.45;;
9799;SDS011;4939;52.00085300;4.17406100;2024-02-26T06:34:39;15.25;;;6.00;;
9799;SDS011;4939;52.00085300;4.17406100;2024-02-26T06:37:06;19.27;;;6.80;;
9799;SDS011;4939;52.00085300;4.17406100;2024-02-26T06:39:32;18.63;;;6.55;;
9799;SDS011;4939;52.00085300;4.17406100;2024-02-26T06:41:58;16.98;;;6.35;;
9799;SDS011;4939;52.00085300;4.17406100;2024-02-26T06:44:27;17.65;;;6.68;;
9799;SDS011;4939;52.00085300;4.17406100;2024-02-26T06:46:57;18.30;;;7.00;;
9799;SDS011;4939;52.00085300;4.17406100;2024-02-26T06:49:24;18.10;;;7.53;;
9799;SDS011;4939;52.00085300;4.17406100;2024-02-26T06:51:50;18.98;;;6.72;;
9799;SDS011;4939;52.00085300;4.17406100;2024-02-26T06:54:16;17.35;;;7.10;;
9799;SDS011;4939;52.00085300;4.17406100;2024-02-26T06:56:42;18.83;;;7.00;;
9799;SDS011;4939;52.00085300;4.17406100;2024-02-26T06:59:08;20.95;;;7.70;;
9799;SDS011;4939;52.00085300;4.17406100;2024-02-26T07:01:34;19.80;;;7.03;;
9799;SDS011;4939;52.00085300;4.17406100;2024-02-26T07:04:00;19.25;;;7.70;;
9799;SDS011;4939;52.00085300;4.17406100;2024-02-26T07:06:27;18.73;;;7.57;;
9799;SDS011;4939;52.00085300;4.17406100;2024-02-26T07:08:53;19.67;;;8.02;;
9799;SDS011;4939;52.00085300;4.17406100;2024-02-26T07:11:19;18.85;;;8.40;;
9799;SDS011;4939;52.00085300;4.17406100;2024-02-26T07:13:45;19.30;;;8.07;;
9799;SDS011;4939;52.00085300;4.17406100;2024-02-26T07:16:11;19.85;;;7.43;;
9799;SDS011;4939;52.00085300;4.17406100;2024-02-26T07:18:39;19.08;;;7.75;;
9799;SDS011;4939;52.00085300;4.17406100;2024-02-26T07:21:04;21.33;;;8.45;;
9799;SDS011;4939;52.00085300;4.17406100;2024-02-26T07:23:30;19.08;;;7.28;;
9799;SDS011;4939;52.00085300;4.17406100;2024-02-26T07:25:57;17.02;;;6.57;;
9799;SDS011;4939;52.00085300;4.17406100;2024-02-26T07:28:23;15.77;;;6.90;;
9799;SDS011;4939;52.00085300;4.17406100;2024-02-26T07:30:49;18.75;;;7.05;;
9799;SDS011;4939;52.00085300;4.17406100;2024-02-26T07:33:15;19.25;;;6.97;;
9799;SDS011;4939;52.00085300;4.17406100;2024-02-26T07:35:41;16.45;;;6.82;;
9799;SDS011;4939;52.00085300;4.17406100;2024-02-26T07:38:07;17.60;;;6.38;;
9799;SDS011;4939;52.00085300;4.17406100;2024-02-26T07:40:33;18.33;;;7.53;;
9799;SDS011;4939;52.00085300;4.17406100;2024-02-26T07:42:59;16.27;;;6.90;;
9799;SDS011;4939;52.00085300;4.17406100;2024-02-26T07:45:25;15.05;;;6.25;;
9799;SDS011;4939;52.00085300;4.17406100;2024-02-26T07:47:51;18.85;;;7.15;;
9799;SDS011;4939;52.00085300;4.17406100;2024-02-26T07:50:17;16.52;;;7.07;;
9799;SDS011;4939;52.00085300;4.17406100;2024-02-26T07:52:45;12.70;;;5.63;;
9799;SDS011;4939;52.00085300;4.17406100;2024-02-26T07:55:11;18.80;;;6.85;;
9799;SDS011;4939;52.00085300;4.17406100;2024-02-26T07:57:37;17.52;;;6.65;;
9799;SDS011;4939;52.00085300;4.17406100;2024-02-26T08:00:04;15.77;;;6.07;;
9799;SDS011;4939;52.00085300;4.17406100;2024-02-26T08:02:34;11.10;;;5.13;;
9799;SDS011;4939;52.00085300;4.17406100;2024-02-26T08:05:00;15.98;;;6.25;;
9799;SDS011;4939;52.00085300;4.17406100;2024-02-26T08:07:26;13.25;;;5.70;;
9799;SDS011;4939;52.00085300;4.17406100;2024-02-26T08:09:53;13.75;;;4.85;;
9799;SDS011;4939;52.00085300;4.17406100;2024-02-26T08:12:19;14.70;;;5.75;;
9799;SDS011;4939;52.00085300;4.17406100;2024-02-26T08:14:45;13.55;;;5.53;;
9799;SDS011;4939;52.00085300;4.17406100;2024-02-26T08:17:11;13.55;;;5.22;;
9799;SDS011;4939;52.00085300;4.17406100;2024-02-26T08:19:37;11.95;;;5.90;;
9799;SDS011;4939;52.00085300;4.17406100;2024-02-26T08:22:03;10.27;;;4.72;;
9799;SDS011;4939;52.00085300;4.17406100;2024-02-26T08:24:30;9.02;;;4.28;;
9799;SDS011;4939;52.00085300;4.17406100;2024-02-26T08:26:56;11.30;;;5.00;;
9799;SDS011;4939;52.00085300;4.17406100;2024-02-26T08:29:22;10.30;;;4.47;;
9799;SDS011;4939;52.00085300;4.17406100;2024-02-26T08:31:48;8.82;;;4.10;;
9799;SDS011;4939;52.00085300;4.17406100;2024-02-26T08:34:14;11.07;;;4.80;;
9799;SDS011;4939;52.00085300;4.17406100;2024-02-26T08:36:40;10.70;;;4.93;;
9799;SDS011;4939;52.00085300;4.17406100;2024-02-26T08:39:08;11.10;;;4.45;;
9799;SDS011;4939;52.00085300;4.17406100;2024-02-26T08:41:34;8.93;;;4.25;;
9799;SDS011;4939;52.00085300;4.17406100;2024-02-26T08:44:00;9.88;;;4.40;;
9799;SDS011;4939;52.00085300;4.17406100;2024-02-26T08:46:26;7.78;;;4.10;;
9799;SDS011;4939;52.00085300;4.17406100;2024-02-26T08:48:52;9.68;;;4.32;;
9799;SDS011;4939;52.00085300;4.17406100;2024-02-26T08:51:18;14.65;;;5.10;;
9799;SDS011;4939;52.00085300;4.17406100;2024-02-26T08:53:44;9.65;;;4.40;;
9799;SDS011;4939;52.00085300;4.17406100;2024-02-26T08:56:10;8.38;;;3.63;;
9799;SDS011;4939;52.00085300;4.17406100;2024-02-26T08:58:41;9.35;;;4.22;;
9799;SDS011;4939;52.00085300;4.17406100;2024-02-26T09:01:07;8.25;;;3.92;;
9799;SDS011;4939;52.00085300;4.17406100;2024-02-26T09:03:33;9.43;;;3.92;;
9799;SDS011;4939;52.00085300;4.17406100;2024-02-26T09:05:59;8.88;;;3.95;;
9799;SDS011;4939;52.00085300;4.17406100;2024-02-26T09:08:25;7.13;;;3.53;;
9799;SDS011;4939;52.00085300;4.17406100;2024-02-26T09:10:51;8.48;;;3.40;;
9799;SDS011;4939;52.00085300;4.17406100;2024-02-26T09:13:18;8.40;;;4.13;;
9799;SDS011;4939;52.00085300;4.17406100;2024-02-26T09:15:44;7.38;;;3.83;;
9799;SDS011;4939;52.00085300;4.17406100;2024-02-26T09:18:10;8.30;;;3.42;;
9799;SDS011;4939;52.00085300;4.17406100;2024-02-26T09:20:36;7.70;;;3.40;;
9799;SDS011;4939;52.00085300;4.17406100;2024-02-26T09:23:03;6.60;;;3.13;;
9799;SDS011;4939;52.00085300;4.17406100;2024-02-26T09:25:29;8.95;;;3.25;;
9799;SDS011;4939;52.00085300;4.17406100;2024-02-26T09:27:55;9.48;;;3.60;;
9799;SDS011;4939;52.00085300;4.17406100;2024-02-26T09:30:21;7.70;;;3.55;;
9799;SDS011;4939;52.00085300;4.17406100;2024-02-26T09:32:48;7.15;;;3.33;;
9799;SDS011;4939;52.00085300;4.17406100;2024-02-26T09:35:14;8.27;;;3.10;;
9799;SDS011;4939;52.00085300;4.17406100;2024-02-26T09:37:40;6.65;;;3.20;;
9799;SDS011;4939;52.00085300;4.17406100;2024-02-26T09:40:06;7.55;;;3.75;;
9799;SDS011;4939;52.00085300;4.17406100;2024-02-26T09:42:35;5.88;;;3.00;;
9799;SDS011;4939;52.00085300;4.17406100;2024-02-26T09:45:01;6.85;;;2.90;;
9799;SDS011;4939;52.00085300;4.17406100;2024-02-26T09:47:33;6.85;;;3.28;;
9799;SDS011;4939;52.00085300;4.17406100;2024-02-26T09:50:02;7.72;;;3.15;;
9799;SDS011;4939;52.00085300;4.17406100;2024-02-26T09:52:32;8.00;;;2.83;;
9799;SDS011;4939;52.00085300;4.17406100;2024-02-26T09:54:59;6.45;;;3.15;;
9799;SDS011;4939;52.00085300;4.17406100;2024-02-26T09:57:25;8.70;;;3.22;;
9799;SDS011;4939;52.00085300;4.17406100;2024-02-26T09:59:51;7.28;;;3.20;;
9799;SDS011;4939;52.00085300;4.17406100;2024-02-26T10:02:19;8.95;;;3.25;;
9799;SDS011;4939;52.00085300;4.17406100;2024-02-26T10:04:46;6.15;;;2.92;;
9799;SDS011;4939;52.00085300;4.17406100;2024-02-26T10:07:12;6.65;;;2.97;;
9799;SDS011;4939;52.00085300;4.17406100;2024-02-26T10:09:39;8.10;;;3.08;;
9799;SDS011;4939;52.00085300;4.17406100;2024-02-26T10:12:05;6.43;;;3.05;;
9799;SDS011;4939;52.00085300;4.17406100;2024-02-26T10:14:31;6.60;;;2.92;;
9799;SDS011;4939;52.00085300;4.17406100;2024-02-26T10:16:57;6.22;;;3.15;;
9799;SDS011;4939;52.00085300;4.17406100;2024-02-26T10:19:27;7.35;;;3.30;;
9799;SDS011;4939;52.00085300;4.17406100;2024-02-26T10:21:58;7.10;;;3.00;;
9799;SDS011;4939;52.00085300;4.17406100;2024-02-26T10:24:25;9.30;;;3.50;;
9799;SDS011;4939;52.00085300;4.17406100;2024-02-26T10:26:52;6.38;;;3.17;;
9799;SDS011;4939;52.00085300;4.17406100;2024-02-26T10:29:19;6.32;;;2.60;;
9799;SDS011;4939;52.00085300;4.17406100;2024-02-26T10:31:45;8.20;;;3.08;;
9799;SDS011;4939;52.00085300;4.17406100;2024-02-26T10:34:11;6.07;;;3.30;;
9799;SDS011;4939;52.00085300;4.17406100;2024-02-26T10:36:38;6.93;;;3.00;;
9799;SDS011;4939;52.00085300;4.17406100;2024-02-26T10:39:06;6.75;;;3.45;;
9799;SDS011;4939;52.00085300;4.17406100;2024-02-26T10:41:35;7.05;;;3.15;;
9799;SDS011;4939;52.00085300;4.17406100;2024-02-26T10:44:01;7.35;;;3.17;;
9799;SDS011;4939;52.00085300;4.17406100;2024-02-26T10:46:27;7.60;;;3.70;;
9799;SDS011;4939;52.00085300;4.17406100;2024-02-26T10:48:53;7.85;;;3.08;;
9799;SDS011;4939;52.00085300;4.17406100;2024-02-26T10:51:27;6.40;;;3.30;;
9799;SDS011;4939;52.00085300;4.17406100;2024-02-26T10:53:57;5.32;;;3.15;;
9799;SDS011;4939;52.00085300;4.17406100;2024-02-26T10:58:54;8.02;;;3.00;;
9799;SDS011;4939;52.00085300;4.17406100;2024-02-26T11:01:20;6.68;;;3.08;;
9799;SDS011;4939;52.00085300;4.17406100;2024-02-26T11:03:51;6.03;;;2.80;;
9799;SDS011;4939;52.00085300;4.17406100;2024-02-26T11:06:23;7.18;;;2.85;;
9799;SDS011;4939;52.00085300;4.17406100;2024-02-26T11:08:51;5.55;;;2.80;;
9799;SDS011;4939;52.00085300;4.17406100;2024-02-26T11:11:18;6.30;;;2.40;;
9799;SDS011;4939;52.00085300;4.17406100;2024-02-26T11:13:48;5.78;;;2.85;;
9799;SDS011;4939;52.00085300;4.17406100;2024-02-26T11:16:20;6.35;;;2.75;;
9799;SDS011;4939;52.00085300;4.17406100;2024-02-26T11:18:47;6.38;;;3.10;;
9799;SDS011;4939;52.00085300;4.17406100;2024-02-26T11:21:16;5.97;;;2.95;;
9799;SDS011;4939;52.00085300;4.17406100;2024-02-26T11:23:45;6.90;;;3.20;;
9799;SDS011;4939;52.00085300;4.17406100;2024-02-26T11:26:11;5.78;;;2.70;;
9799;SDS011;4939;52.00085300;4.17406100;2024-02-26T11:28:40;6.55;;;2.78;;
9799;SDS011;4939;52.00085300;4.17406100;2024-02-26T11:31:06;7.75;;;3.30;;
9799;SDS011;4939;52.00085300;4.17406100;2024-02-26T11:33:32;7.63;;;2.90;;
9799;SDS011;4939;52.00085300;4.17406100;2024-02-26T11:36:01;6.97;;;2.78;;
9799;SDS011;4939;52.00085300;4.17406100;2024-02-26T11:38:28;8.18;;;3.10;;
9799;SDS011;4939;52.00085300;4.17406100;2024-02-26T11:40:54;7.13;;;3.20;;
9799;SDS011;4939;52.00085300;4.17406100;2024-02-26T11:43:44;6.95;;;2.85;;
9799;SDS011;4939;52.00085300;4.17406100;2024-02-26T11:46:29;5.28;;;2.65;;
9799;SDS011;4939;52.00085300;4.17406100;2024-02-26T11:48:58;6.35;;;2.42;;
9799;SDS011;4939;52.00085300;4.17406100;2024-02-26T11:51:32;5.18;;;2.58;;
9799;SDS011;4939;52.00085300;4.17406100;2024-02-26T11:53:59;5.63;;;2.58;;
9799;SDS011;4939;52.00085300;4.17406100;2024-02-26T11:56:25;5.30;;;2.55;;
9799;SDS011;4939;52.00085300;4.17406100;2024-02-26T11:59:04;7.10;;;2.63;;
9799;SDS011;4939;52.00085300;4.17406100;2024-02-26T12:01:47;6.78;;;2.80;;
9799;SDS011;4939;52.00085300;4.17406100;2024-02-26T12:04:14;6.97;;;2.70;;
9799;SDS011;4939;52.00085300;4.17406100;2024-02-26T12:06:50;5.75;;;2.88;;
9799;SDS011;4939;52.00085300;4.17406100;2024-02-26T12:12:08;5.97;;;2.53;;
9799;SDS011;4939;52.00085300;4.17406100;2024-02-26T12:14:56;6.20;;;2.90;;
9799;SDS011;4939;52.00085300;4.17406100;2024-02-26T12:17:22;6.55;;;2.67;;
9799;SDS011;4939;52.00085300;4.17406100;2024-02-26T12:19:49;5.40;;;2.80;;
9799;SDS011;4939;52.00085300;4.17406100;2024-02-26T12:22:16;5.43;;;2.20;;
9799;SDS011;4939;52.00085300;4.17406100;2024-02-26T12:24:42;5.32;;;2.50;;
9799;SDS011;4939;52.00085300;4.17406100;2024-02-26T12:27:08;7.75;;;2.63;;
9799;SDS011;4939;52.00085300;4.17406100;2024-02-26T12:29:34;7.38;;;2.58;;
9799;SDS011;4939;52.00085300;4.17406100;2024-02-26T12:32:00;7.53;;;2.25;;
9799;SDS011;4939;52.00085300;4.17406100;2024-02-26T12:34:28;5.43;;;2.35;;
9799;SDS011;4939;52.00085300;4.17406100;2024-02-26T12:36:54;7.05;;;2.50;;
9799;SDS011;4939;52.00085300;4.17406100;2024-02-26T12:39:20;5.57;;;2.40;;
9799;SDS011;4939;52.00085300;4.17406100;2024-02-26T12:41:46;7.05;;;2.45;;
9799;SDS011;4939;52.00085300;4.17406100;2024-02-26T12:44:24;4.68;;;1.85;;
9799;SDS011;4939;52.00085300;4.17406100;2024-02-26T12:46:50;4.22;;;1.65;;
9799;SDS011;4939;52.00085300;4.17406100;2024-02-26T12:49:16;5.13;;;2.00;;
9799;SDS011;4939;52.00085300;4.17406100;2024-02-26T12:51:43;4.75;;;2.13;;
9799;SDS011;4939;52.00085300;4.17406100;2024-02-26T12:54:10;5.00;;;2.05;;
9799;SDS011;4939;52.00085300;4.17406100;2024-02-26T12:56:37;5.38;;;1.85;;
9799;SDS011;4939;52.00085300;4.17406100;2024-02-26T12:59:03;4.10;;;1.67;;
9799;SDS011;4939;52.00085300;4.17406100;2024-02-26T13:01:29;5.95;;;1.90;;
9799;SDS011;4939;52.00085300;4.17406100;2024-02-26T13:03:55;6.10;;;2.00;;
9799;SDS011;4939;52.00085300;4.17406100;2024-02-26T13:06:22;4.40;;;1.88;;
9799;SDS011;4939;52.00085300;4.17406100;2024-02-26T13:08:48;4.68;;;2.20;;
9799;SDS011;4939;52.00085300;4.17406100;2024-02-26T13:11:14;3.35;;;1.65;;